Weather at Paramali South Helipad

Public forecast

Using degrees Celsius for public forecast. Weather courtesy of forecast.io.

Closest aviation weather report (METAR) to Paramali South Helipad

Closest report is RAF Akrotiri, 9.8 nm (18.2 km) ESE.

2024/06/13 08:50 (retrieved 39 minutes ago)

LCRA 130850Z 11005KT CAVOK 34/18 Q1011 NOSIG RMK BLU BLU

Closest aviation forecast (TAF) to Paramali South Helipad

Closest forecast is RAF Akrotiri, 9.8 nm (18.2 km) ESE.

2024/06/13 09:35 (retrieved 0 seconds ago)

TAF LCRA 130723Z 1309/1403 17005KT CAVOK BECMG 1309/1312 22008KT BECMG 1321/1324 05005KT